createdAt,value
2022-08-18T00:02:03.979Z,37.17
2022-08-18T00:04:35.640Z,40.58
2022-08-18T00:07:06.521Z,40.95
2022-08-18T00:09:39.111Z,39.83
2022-08-18T00:12:14.653Z,42.88
2022-08-18T00:14:41.729Z,45.45
2022-08-18T00:17:09.200Z,48.90
2022-08-18T00:19:45.583Z,52.15
2022-08-18T00:22:19.429Z,49.83
2022-08-18T00:24:54.631Z,53.38
2022-08-18T00:27:29.432Z,53.38
2022-08-18T00:30:02.582Z,52.22
2022-08-18T00:32:36.211Z,55.50
2022-08-18T00:35:28.986Z,50.08
2022-08-18T00:37:59.747Z,57.45
2022-08-18T00:40:39.391Z,59.92
2022-08-18T00:43:13.885Z,56.58
2022-08-18T00:45:43.696Z,69.15
2022-08-18T00:48:13.200Z,72.35
2022-08-18T00:51:04.157Z,75.80
2022-08-18T00:53:40.632Z,73.00
2022-08-18T00:56:13.768Z,72.63
2022-08-18T00:58:57.916Z,76.57
2022-08-18T01:01:29.882Z,74.68
2022-08-18T01:04:07.182Z,79.40
2022-08-18T01:06:43.114Z,75.50
2022-08-18T01:09:10.516Z,81.28
2022-08-18T01:11:38.803Z,64.00
2022-08-18T01:14:09.054Z,68.90
2022-08-18T01:16:57.615Z,73.43
2022-08-18T01:19:45.715Z,68.03
2022-08-18T01:22:40.313Z,65.25
2022-08-18T01:25:27.651Z,66.45
2022-08-18T01:27:59.727Z,62.25
2022-08-18T01:30:28.781Z,68.10
2022-08-18T01:32:57.159Z,67.50
2022-08-18T01:35:26.565Z,71.22
2022-08-18T01:37:55.292Z,71.68
2022-08-18T01:41:11.079Z,64.22
2022-08-18T01:43:12.060Z,67.82
2022-08-18T01:45:40.479Z,61.40
2022-08-18T01:48:08.580Z,59.80
2022-08-18T01:50:37.711Z,57.78
2022-08-18T01:53:05.894Z,57.65
2022-08-18T01:55:40.353Z,59.40
2022-08-18T01:58:07.969Z,53.60
2022-08-18T02:00:36.670Z,58.03
2022-08-18T02:03:08.578Z,60.33
2022-08-18T02:05:41.807Z,56.67
2022-08-18T02:08:09.443Z,66.35
2022-08-18T02:10:37.071Z,65.28
2022-08-18T02:13:04.157Z,57.15
2022-08-18T02:15:32.426Z,61.67
2022-08-18T02:17:59.488Z,60.10
2022-08-18T02:20:26.527Z,58.03
2022-08-18T02:22:53.728Z,54.30
2022-08-18T02:25:20.994Z,56.05
2022-08-18T02:27:47.953Z,60.47
2022-08-18T02:30:18.330Z,61.15
2022-08-18T02:32:45.490Z,55.22
2022-08-18T02:35:12.728Z,62.28
2022-08-18T02:37:42.390Z,63.28
2022-08-18T02:40:15.490Z,57.40
2022-08-18T02:42:44.129Z,58.78
2022-08-18T02:45:12.903Z,53.67
2022-08-18T02:47:40.435Z,56.80
2022-08-18T02:50:10.939Z,60.72
2022-08-18T02:52:38.364Z,61.72
2022-08-18T02:55:08.260Z,53.75
2022-08-18T02:57:48.751Z,57.85
2022-08-18T03:00:18.784Z,56.42
2022-08-18T03:02:48.414Z,56.40
2022-08-18T03:05:16.504Z,55.10
2022-08-18T03:07:45.441Z,53.38
2022-08-18T03:10:32.717Z,53.70
2022-08-18T03:13:01.676Z,52.78
2022-08-18T03:15:28.728Z,59.05
2022-08-18T03:17:56.241Z,57.83
2022-08-18T03:20:30.805Z,55.83
2022-08-18T03:22:58.701Z,56.42
2022-08-18T03:25:25.657Z,53.10
2022-08-18T03:27:52.788Z,52.30
2022-08-18T03:30:19.891Z,49.13
2022-08-18T03:32:47.846Z,59.83
2022-08-18T03:35:14.875Z,62.85
2022-08-18T03:37:41.864Z,52.97
2022-08-18T03:40:11.049Z,53.05
2022-08-18T03:42:38.230Z,47.90
2022-08-18T03:45:13.225Z,48.55
2022-08-18T03:47:45.940Z,51.03
2022-08-18T03:50:13.891Z,49.90
2022-08-18T03:52:41.750Z,49.28
2022-08-18T03:55:09.480Z,51.03
2022-08-18T03:57:39.135Z,52.63
2022-08-18T04:00:12.594Z,56.35
2022-08-18T04:02:40.386Z,50.05
2022-08-18T04:05:08.077Z,53.63
2022-08-18T04:07:35.829Z,55.70
2022-08-18T04:10:04.157Z,53.65
2022-08-18T04:12:31.538Z,51.08
2022-08-18T04:14:58.665Z,48.83
2022-08-18T04:17:25.663Z,45.38
2022-08-18T04:19:54.921Z,48.60
2022-08-18T04:22:22.974Z,48.88
2022-08-18T04:24:50.687Z,47.70
2022-08-18T04:27:19.792Z,47.08
2022-08-18T04:29:47.459Z,48.85
2022-08-18T04:32:15.307Z,48.05
2022-08-18T04:34:42.303Z,46.83
2022-08-18T04:37:09.951Z,46.55
2022-08-18T04:39:37.520Z,45.60
2022-08-18T04:42:05.899Z,46.50
2022-08-18T04:44:33.280Z,46.30
2022-08-18T04:47:02.053Z,47.70
2022-08-18T04:49:30.498Z,46.03
2022-08-18T04:52:30.771Z,48.80
2022-08-18T04:55:06.010Z,44.65
2022-08-18T04:57:34.837Z,46.92
2022-08-18T05:00:04.946Z,45.38
2022-08-18T05:02:33.141Z,42.00
2022-08-18T05:05:01.574Z,41.92
2022-08-18T05:07:31.723Z,43.08
2022-08-18T05:09:59.894Z,52.92
2022-08-18T05:12:27.017Z,55.53
2022-08-18T05:14:57.015Z,50.88
2022-08-18T05:17:30.527Z,51.60
2022-08-18T05:20:01.431Z,47.80
2022-08-18T05:22:31.071Z,44.28
2022-08-18T05:24:58.926Z,47.88
2022-08-18T05:27:25.881Z,49.65
2022-08-18T05:29:52.812Z,45.60
2022-08-18T05:32:46.382Z,50.60
2022-08-18T05:35:14.201Z,53.20
2022-08-18T05:38:16.454Z,49.90
2022-08-18T05:40:46.107Z,51.33
2022-08-18T05:43:15.988Z,55.72
2022-08-18T05:45:44.079Z,56.35
2022-08-18T05:48:11.070Z,46.25
2022-08-18T05:50:38.197Z,53.63
2022-08-18T05:53:14.631Z,48.40
2022-08-18T05:56:21.481Z,49.08
2022-08-18T05:58:55.583Z,46.20
2022-08-18T06:01:30.338Z,43.50
2022-08-18T06:04:14.757Z,45.47
2022-08-18T06:06:47.616Z,43.83
2022-08-18T06:09:33.348Z,45.10
2022-08-18T06:12:25.016Z,46.13
2022-08-18T06:14:57.680Z,48.63
2022-08-18T06:17:52.407Z,48.50
2022-08-18T06:20:30.712Z,49.50
2022-08-18T06:23:20.328Z,49.83
2022-08-18T06:26:17.769Z,49.42
2022-08-18T06:29:38.540Z,47.70
2022-08-18T06:32:20.393Z,49.28
2022-08-18T06:34:56.259Z,52.65
2022-08-18T06:38:03.170Z,50.72
2022-08-18T06:40:30.106Z,51.03
2022-08-18T06:43:01.999Z,51.15
2022-08-18T06:45:39.854Z,48.65
2022-08-18T06:48:32.313Z,46.45
2022-08-18T06:51:03.684Z,42.33
2022-08-18T06:53:56.602Z,42.22
2022-08-18T06:56:28.406Z,43.20
2022-08-18T06:59:14.593Z,43.55
2022-08-18T07:01:42.307Z,38.58
2022-08-18T07:04:09.509Z,44.08
2022-08-18T07:06:38.357Z,40.67
2022-08-18T07:09:24.655Z,42.88
2022-08-18T07:12:08.783Z,43.03
2022-08-18T07:14:53.178Z,38.15
2022-08-18T07:17:43.351Z,41.35
2022-08-18T07:20:25.582Z,39.72
2022-08-18T07:23:00.900Z,37.83
2022-08-18T07:25:39.420Z,34.75
2022-08-18T07:28:40.384Z,34.20
2022-08-18T07:31:35.261Z,37.08
2022-08-18T07:34:12.533Z,38.63
2022-08-18T07:36:49.946Z,37.47
2022-08-18T07:39:42.370Z,36.33
2022-08-18T07:42:54.410Z,35.70
2022-08-18T07:45:34.291Z,37.00
2022-08-18T07:48:37.077Z,36.38
2022-08-18T07:51:43.821Z,35.33
2022-08-18T07:54:50.643Z,38.35
2022-08-18T07:57:27.510Z,35.28
2022-08-18T08:00:35.446Z,38.55
2022-08-18T08:03:39.340Z,35.92
2022-08-18T08:06:10.223Z,33.88
2022-08-18T08:08:55.243Z,35.65
2022-08-18T08:11:34.031Z,34.50
2022-08-18T08:14:41.607Z,35.80
2022-08-18T08:17:30.438Z,33.58
2022-08-18T08:20:19.750Z,34.35
2022-08-18T08:23:17.707Z,36.15
2022-08-18T08:26:16.597Z,37.53
2022-08-18T08:29:11.516Z,35.95
2022-08-18T08:31:59.940Z,36.33
2022-08-18T08:34:32.570Z,34.17
2022-08-18T08:37:05.225Z,34.15
2022-08-18T08:39:59.010Z,33.75
2022-08-18T08:42:57.802Z,33.08
2022-08-18T08:45:39.475Z,31.98
2022-08-18T08:48:28.269Z,31.63
2022-08-18T08:51:07.524Z,31.25
2022-08-18T08:53:54.364Z,31.67
2022-08-18T08:56:30.540Z,33.25
2022-08-18T08:59:26.853Z,33.05
2022-08-18T09:02:06.056Z,33.83
2022-08-18T09:05:07.773Z,33.50
2022-08-18T09:07:45.397Z,33.42
2022-08-18T09:10:53.534Z,31.80
2022-08-18T09:14:05.344Z,27.80
2022-08-18T09:17:34.121Z,29.92
2022-08-18T09:20:49.247Z,29.67
2022-08-18T09:23:35.272Z,28.45
2022-08-18T09:27:14.842Z,26.67
2022-08-18T09:29:59.198Z,27.20
2022-08-18T09:32:26.119Z,25.98
2022-08-18T09:35:08.321Z,26.85
2022-08-18T09:38:24.365Z,26.45
2022-08-18T09:41:17.564Z,22.77
2022-08-18T09:47:00.293Z,20.23
2022-08-18T09:49:28.189Z,19.30
2022-08-18T09:52:24.280Z,21.75
2022-08-18T09:54:54.166Z,24.90
2022-08-18T09:57:31.260Z,24.83
2022-08-18T10:00:12.483Z,24.25
2022-08-18T10:02:40.392Z,23.27
2022-08-18T10:05:19.377Z,22.73
2022-08-18T10:08:27.127Z,22.23
2022-08-18T10:11:02.118Z,20.85
2022-08-18T10:14:05.998Z,21.40
2022-08-18T10:17:39.573Z,21.50
2022-08-18T10:20:53.556Z,22.35
2022-08-18T10:24:29.534Z,21.50
2022-08-18T10:26:55.028Z,20.83
2022-08-18T10:29:32.004Z,19.73
2022-08-18T10:31:59.731Z,18.73
2022-08-18T10:35:06.145Z,19.30
2022-08-18T10:37:49.180Z,20.38
2022-08-18T10:40:21.553Z,19.88
2022-08-18T10:43:46.350Z,20.42
2022-08-18T10:46:25.358Z,21.15
2022-08-18T10:49:06.995Z,20.58
2022-08-18T10:52:00.601Z,18.80
2022-08-18T10:55:06.241Z,16.42
2022-08-18T10:57:53.715Z,15.65
2022-08-18T11:00:23.457Z,14.52
2022-08-18T11:03:42.648Z,12.05
2022-08-18T11:09:00.577Z,12.57
2022-08-18T11:11:52.776Z,15.30
2022-08-18T11:14:50.175Z,15.50
2022-08-18T11:17:36.150Z,14.07
2022-08-18T11:20:11.995Z,13.88
2022-08-18T11:22:38.937Z,14.35
2022-08-18T11:25:28.055Z,13.43
2022-08-18T11:27:56.858Z,14.70
2022-08-18T11:30:37.543Z,13.73
2022-08-18T11:33:07.474Z,12.98
2022-08-18T11:35:51.313Z,15.02
2022-08-18T11:38:23.312Z,16.15
2022-08-18T11:41:13.091Z,15.48
2022-08-18T11:43:43.195Z,15.68
2022-08-18T11:46:29.574Z,15.25
2022-08-18T11:49:17.087Z,12.18
2022-08-18T11:52:19.830Z,11.10
2022-08-18T11:55:14.678Z,14.13
2022-08-18T11:57:59.271Z,13.80
2022-08-18T12:00:42.977Z,11.70
2022-08-18T12:03:23.919Z,11.93
2022-08-18T12:05:56.354Z,12.45
2022-08-18T12:08:54.695Z,10.30
2022-08-18T12:11:27.304Z,16.33
2022-08-18T12:14:30.612Z,11.98
2022-08-18T12:16:57.537Z,12.60
2022-08-18T12:19:34.440Z,13.20
2022-08-18T12:22:13.973Z,12.90
2022-08-18T12:24:41.458Z,10.27
2022-08-18T12:27:20.713Z,11.25
2022-08-18T12:29:50.373Z,10.52
2022-08-18T12:32:41.785Z,12.27
2022-08-18T12:35:11.578Z,12.35
2022-08-18T12:40:31.457Z,11.18
2022-08-18T12:42:58.388Z,10.15
2022-08-18T12:48:13.723Z,10.05
2022-08-18T12:53:57.930Z,12.10
2022-08-18T12:56:27.034Z,10.75
2022-08-18T12:58:55.462Z,10.90
2022-08-18T13:01:25.023Z,11.25
2022-08-18T13:07:00.126Z,11.10
2022-08-18T13:09:35.800Z,12.48
2022-08-18T13:12:21.410Z,11.65
2022-08-18T13:14:49.894Z,10.35
2022-08-18T13:17:32.086Z,13.48
2022-08-18T13:20:21.447Z,12.73
2022-08-18T13:22:48.456Z,12.18
2022-08-18T13:25:32.243Z,9.75
2022-08-18T13:28:02.042Z,10.68
2022-08-18T13:30:31.813Z,10.07
2022-08-18T13:33:05.711Z,10.77
2022-08-18T13:35:53.984Z,10.40
2022-08-18T13:38:25.991Z,8.98
2022-08-18T13:40:59.078Z,9.90
2022-08-18T13:43:39.455Z,9.18
2022-08-18T13:46:09.161Z,10.38
2022-08-18T13:48:38.023Z,10.57
2022-08-18T13:51:08.268Z,9.10
2022-08-18T13:53:50.527Z,8.43
2022-08-18T13:56:19.319Z,12.40
2022-08-18T13:58:53.468Z,12.35
2022-08-18T14:01:44.165Z,9.68
2022-08-18T14:04:12.740Z,12.15
2022-08-18T14:06:46.860Z,9.70
2022-08-18T14:09:19.561Z,10.68
2022-08-18T14:11:54.766Z,10.32
2022-08-18T14:14:21.751Z,10.55
2022-08-18T14:16:48.831Z,10.52
2022-08-18T14:19:36.129Z,10.18
2022-08-18T14:22:25.569Z,9.90
2022-08-18T14:25:12.434Z,12.18
2022-08-18T14:27:39.473Z,10.45
2022-08-18T14:30:10.951Z,12.35
2022-08-18T14:32:48.656Z,9.68
2022-08-18T14:35:33.306Z,9.32
2022-08-18T14:38:05.698Z,8.38
2022-08-18T14:40:33.414Z,8.95
2022-08-18T14:43:02.760Z,11.10
2022-08-18T14:45:35.438Z,9.57
2022-08-18T14:48:11.078Z,9.20
2022-08-18T14:50:40.300Z,8.98
2022-08-18T14:53:20.158Z,11.05
2022-08-18T14:55:52.645Z,8.55
2022-08-18T14:58:26.442Z,8.38
2022-08-18T15:00:58.237Z,7.38
2022-08-18T15:03:31.389Z,9.10
2022-08-18T15:06:04.825Z,8.40
2022-08-18T15:08:35.411Z,9.48
2022-08-18T15:11:06.119Z,9.63
2022-08-18T15:13:42.237Z,9.38
2022-08-18T15:16:13.488Z,8.25
2022-08-18T15:18:42.912Z,8.10
2022-08-18T15:21:38.504Z,9.95
2022-08-18T15:24:26.384Z,10.70
2022-08-18T15:26:57.885Z,9.43
2022-08-18T15:29:27.969Z,9.05
2022-08-18T15:32:05.312Z,9.27
2022-08-18T15:34:47.194Z,9.00
2022-08-18T15:37:24.397Z,6.90
2022-08-18T15:40:21.866Z,7.53
2022-08-18T15:43:01.464Z,7.85
2022-08-18T15:45:37.733Z,7.55
2022-08-18T15:48:12.539Z,7.32
2022-08-18T15:50:39.749Z,8.45
2022-08-18T15:53:11.939Z,6.82
2022-08-18T15:55:40.578Z,6.22
2022-08-18T15:58:11.001Z,6.47
2022-08-18T16:00:43.830Z,7.35
2022-08-18T16:03:16.195Z,7.03
2022-08-18T16:05:54.874Z,6.35
2022-08-18T16:08:25.318Z,6.82
2022-08-18T16:10:53.593Z,7.53
2022-08-18T16:13:21.204Z,6.05
2022-08-18T16:15:50.007Z,6.50
2022-08-18T16:18:21.150Z,5.70
2022-08-18T16:20:56.790Z,5.82
2022-08-18T16:23:24.557Z,5.57
2022-08-18T16:25:51.477Z,6.20
2022-08-18T16:28:18.397Z,8.05
2022-08-18T16:30:47.324Z,7.57
2022-08-18T16:33:14.251Z,7.93
2022-08-18T16:35:42.944Z,7.35
2022-08-18T16:38:12.496Z,7.38
2022-08-18T16:40:41.154Z,7.32
2022-08-18T16:43:08.106Z,6.93
2022-08-18T16:45:37.827Z,6.72
2022-08-18T16:48:08.946Z,9.10
2022-08-18T16:50:37.884Z,7.63
2022-08-18T16:53:05.656Z,7.72
2022-08-18T16:55:32.671Z,6.95
2022-08-18T16:58:18.287Z,8.88
2022-08-18T17:01:03.833Z,7.25
2022-08-18T17:03:49.494Z,7.18
2022-08-18T17:06:18.806Z,8.23
2022-08-18T17:08:46.240Z,8.05
2022-08-18T17:11:18.831Z,7.40
2022-08-18T17:13:48.555Z,7.35
2022-08-18T17:16:18.101Z,6.28
2022-08-18T17:18:47.126Z,7.45
2022-08-18T17:21:18.720Z,6.63
2022-08-18T17:23:46.659Z,7.30
2022-08-18T17:26:52.795Z,7.63
2022-08-18T17:29:43.997Z,6.55
2022-08-18T17:35:28.747Z,8.98
2022-08-18T17:38:08.088Z,6.88
2022-08-18T17:40:46.375Z,8.70
2022-08-18T17:43:20.844Z,8.00
2022-08-18T17:45:56.206Z,8.18
2022-08-18T17:48:33.176Z,8.40
2022-08-18T17:51:30.970Z,7.45
2022-08-18T17:54:01.087Z,7.72
2022-08-18T17:56:57.329Z,7.15
2022-08-18T17:59:51.948Z,6.97
2022-08-18T18:02:29.652Z,7.55
2022-08-18T18:05:04.310Z,6.93
2022-08-18T18:07:55.714Z,7.60
2022-08-18T18:10:37.740Z,6.90
2022-08-18T18:13:12.217Z,7.38
2022-08-18T18:15:48.928Z,7.18
2022-08-18T18:18:24.848Z,6.97
2022-08-18T18:21:21.677Z,6.20
2022-08-18T18:24:14.132Z,7.22
2022-08-18T18:26:47.986Z,7.50
2022-08-18T18:29:38.116Z,7.45
2022-08-18T18:32:43.193Z,7.32
2022-08-18T18:35:34.171Z,7.70
2022-08-18T18:38:24.371Z,6.78
2022-08-18T18:41:04.331Z,7.70
2022-08-18T18:43:38.276Z,7.78
2022-08-18T18:46:18.835Z,8.75
2022-08-18T18:49:02.771Z,7.80
2022-08-18T18:52:03.596Z,8.23
2022-08-18T18:54:49.529Z,10.02
2022-08-18T18:57:48.571Z,8.85
2022-08-18T19:00:30.276Z,9.98
2022-08-18T19:03:15.451Z,9.20
2022-08-18T19:06:15.982Z,9.45
2022-08-18T19:09:31.010Z,8.90
2022-08-18T19:12:21.134Z,10.40
2022-08-18T19:15:14.811Z,9.95
2022-08-18T19:17:52.694Z,9.27
2022-08-18T19:20:34.863Z,10.10
2022-08-18T19:23:15.312Z,11.73
2022-08-18T19:26:00.700Z,10.38
2022-08-18T19:29:13.696Z,9.73
2022-08-18T19:31:45.726Z,9.05
2022-08-18T19:34:19.082Z,10.30
2022-08-18T19:37:07.167Z,10.32
2022-08-18T19:39:49.607Z,9.85
2022-08-18T19:42:39.322Z,11.52
2022-08-18T19:45:19.327Z,11.85
2022-08-18T19:47:57.473Z,11.35
2022-08-18T19:50:43.995Z,13.45
2022-08-18T19:53:32.331Z,15.80
2022-08-18T19:56:24.630Z,15.10
2022-08-18T19:59:41.028Z,13.68
2022-08-18T20:02:41.915Z,14.52
2022-08-18T20:05:32.987Z,14.98
2022-08-18T20:08:25.629Z,15.25
2022-08-18T20:11:41.418Z,14.43
2022-08-18T20:14:18.689Z,16.50
2022-08-18T20:17:16.830Z,14.80
2022-08-18T20:19:52.918Z,13.25
2022-08-18T20:22:24.466Z,14.15
2022-08-18T20:25:08.682Z,15.05
2022-08-18T20:27:42.748Z,14.48
2022-08-18T20:30:32.813Z,16.10
2022-08-18T20:33:24.178Z,16.42
2022-08-18T20:36:12.103Z,16.00
2022-08-18T20:38:53.196Z,15.20
2022-08-18T20:41:29.618Z,16.05
2022-08-18T20:44:29.903Z,17.35
2022-08-18T20:47:28.900Z,16.38
2022-08-18T20:50:21.599Z,19.52
2022-08-18T20:53:00.700Z,16.90
2022-08-18T20:56:31.446Z,18.23
2022-08-18T20:59:14.107Z,17.65
2022-08-18T21:01:41.238Z,18.13
2022-08-18T21:04:09.065Z,18.40
2022-08-18T21:06:42.065Z,17.85
2022-08-18T21:09:13.098Z,19.48
2022-08-18T21:11:45.835Z,18.05
2022-08-18T21:14:15.070Z,18.02
2022-08-18T21:16:45.413Z,20.40
2022-08-18T21:19:28.033Z,21.25
2022-08-18T21:22:00.698Z,21.88
2022-08-18T21:24:37.489Z,22.02
2022-08-18T21:27:30.500Z,20.77
2022-08-18T21:30:15.412Z,20.17
2022-08-18T21:32:48.326Z,22.45
2022-08-18T21:35:22.211Z,22.73
2022-08-18T21:38:08.047Z,24.95
2022-08-18T21:40:34.984Z,24.08
2022-08-18T21:43:02.101Z,27.15
2022-08-18T21:45:29.522Z,28.85
2022-08-18T21:48:05.008Z,27.55
2022-08-18T21:50:34.956Z,27.77
2022-08-18T21:53:20.539Z,28.23
2022-08-18T21:55:51.827Z,29.55
2022-08-18T21:58:42.271Z,30.33
2022-08-18T22:01:28.304Z,27.90
2022-08-18T22:03:59.746Z,27.40
2022-08-18T22:06:40.249Z,26.00
2022-08-18T22:09:28.579Z,27.20
2022-08-18T22:12:54.567Z,29.30
2022-08-18T22:15:26.446Z,31.08
2022-08-18T22:18:00.341Z,29.95
2022-08-18T22:21:00.131Z,33.28
2022-08-18T22:23:54.367Z,33.05
2022-08-18T22:26:32.482Z,33.83
2022-08-18T22:29:16.754Z,31.05
2022-08-18T22:31:47.883Z,31.88
2022-08-18T22:34:17.877Z,31.45
2022-08-18T22:37:04.968Z,31.65
2022-08-18T22:39:44.934Z,33.55
2022-08-18T22:42:15.223Z,32.50
2022-08-18T22:44:43.057Z,32.83
2022-08-18T22:47:10.768Z,34.50
2022-08-18T22:49:38.053Z,34.58
2022-08-18T22:52:13.085Z,33.05
2022-08-18T22:54:40.022Z,31.17
2022-08-18T22:57:10.637Z,34.45
2022-08-18T22:59:37.806Z,33.85
2022-08-18T23:02:11.307Z,36.13
2022-08-18T23:04:38.227Z,37.47
2022-08-18T23:07:05.238Z,41.70
2022-08-18T23:09:33.651Z,41.55
2022-08-18T23:12:10.693Z,42.55
2022-08-18T23:14:38.181Z,43.22
2022-08-18T23:17:07.359Z,42.58
2022-08-18T23:19:34.645Z,42.53
2022-08-18T23:22:04.241Z,44.97
2022-08-18T23:24:31.803Z,44.50
2022-08-18T23:26:59.974Z,44.08
2022-08-18T23:29:27.204Z,44.33
2022-08-18T23:31:54.326Z,41.80
2022-08-18T23:34:24.270Z,40.55
2022-08-18T23:37:01.278Z,34.83
2022-08-18T23:39:30.726Z,31.75
2022-08-18T23:41:58.595Z,29.75
2022-08-18T23:44:27.935Z,27.85
2022-08-18T23:46:59.956Z,27.27
2022-08-18T23:49:30.398Z,26.75
2022-08-18T23:51:59.222Z,26.08
2022-08-18T23:54:31.456Z,26.48
2022-08-18T23:56:58.692Z,27.92
2022-08-18T23:59:28.088Z,29.00
